sensor_id;sensor_type;location;lat;lon;timestamp;P1;durP1;ratioP1;P2;durP2;ratioP2
5040;SDS011;2539;52.568;13.364;2024-01-07T00:01:46;10.07;;;5.40;;
5040;SDS011;2539;52.568;13.364;2024-01-07T00:04:14;7.30;;;4.77;;
5040;SDS011;2539;52.568;13.364;2024-01-07T00:06:41;4.40;;;3.40;;
5040;SDS011;2539;52.568;13.364;2024-01-07T00:09:08;4.83;;;3.90;;
5040;SDS011;2539;52.568;13.364;2024-01-07T00:11:34;6.60;;;3.70;;
5040;SDS011;2539;52.568;13.364;2024-01-07T00:14:01;7.03;;;4.60;;
5040;SDS011;2539;52.568;13.364;2024-01-07T00:16:27;6.07;;;4.67;;
5040;SDS011;2539;52.568;13.364;2024-01-07T00:18:53;5.13;;;3.93;;
5040;SDS011;2539;52.568;13.364;2024-01-07T00:21:20;6.33;;;4.23;;
5040;SDS011;2539;52.568;13.364;2024-01-07T00:23:46;5.00;;;3.77;;
5040;SDS011;2539;52.568;13.364;2024-01-07T00:26:12;7.63;;;4.50;;
5040;SDS011;2539;52.568;13.364;2024-01-07T00:28:38;8.67;;;4.13;;
5040;SDS011;2539;52.568;13.364;2024-01-07T00:31:05;4.70;;;3.80;;
5040;SDS011;2539;52.568;13.364;2024-01-07T00:33:33;6.13;;;3.67;;
5040;SDS011;2539;52.568;13.364;2024-01-07T00:36:00;3.50;;;3.07;;
5040;SDS011;2539;52.568;13.364;2024-01-07T00:38:27;5.10;;;3.70;;
5040;SDS011;2539;52.568;13.364;2024-01-07T00:40:54;5.10;;;3.73;;
5040;SDS011;2539;52.568;13.364;2024-01-07T00:43:20;5.73;;;3.20;;
5040;SDS011;2539;52.568;13.364;2024-01-07T00:45:46;4.40;;;3.90;;
5040;SDS011;2539;52.568;13.364;2024-01-07T00:48:13;5.77;;;3.20;;
5040;SDS011;2539;52.568;13.364;2024-01-07T00:50:40;4.30;;;3.73;;
5040;SDS011;2539;52.568;13.364;2024-01-07T00:53:06;4.63;;;3.30;;
5040;SDS011;2539;52.568;13.364;2024-01-07T00:55:33;3.87;;;3.03;;
5040;SDS011;2539;52.568;13.364;2024-01-07T00:58:01;5.10;;;3.70;;
5040;SDS011;2539;52.568;13.364;2024-01-07T01:00:28;3.53;;;2.90;;
5040;SDS011;2539;52.568;13.364;2024-01-07T01:03:00;5.83;;;3.90;;
5040;SDS011;2539;52.568;13.364;2024-01-07T01:05:27;4.77;;;3.23;;
5040;SDS011;2539;52.568;13.364;2024-01-07T01:07:53;4.23;;;3.27;;
5040;SDS011;2539;52.568;13.364;2024-01-07T01:10:19;3.50;;;2.87;;
5040;SDS011;2539;52.568;13.364;2024-01-07T01:12:45;5.10;;;3.23;;
5040;SDS011;2539;52.568;13.364;2024-01-07T01:15:12;4.20;;;3.00;;
5040;SDS011;2539;52.568;13.364;2024-01-07T01:17:38;5.23;;;3.63;;
5040;SDS011;2539;52.568;13.364;2024-01-07T01:20:04;3.63;;;2.90;;
5040;SDS011;2539;52.568;13.364;2024-01-07T01:22:31;3.67;;;2.80;;
5040;SDS011;2539;52.568;13.364;2024-01-07T01:25:04;4.20;;;3.47;;
5040;SDS011;2539;52.568;13.364;2024-01-07T01:27:30;5.10;;;3.37;;
5040;SDS011;2539;52.568;13.364;2024-01-07T01:29:57;3.93;;;2.20;;
5040;SDS011;2539;52.568;13.364;2024-01-07T01:32:23;3.57;;;3.03;;
5040;SDS011;2539;52.568;13.364;2024-01-07T01:34:49;3.50;;;2.90;;
5040;SDS011;2539;52.568;13.364;2024-01-07T01:37:15;3.20;;;2.70;;
5040;SDS011;2539;52.568;13.364;2024-01-07T01:39:42;4.27;;;3.50;;
5040;SDS011;2539;52.568;13.364;2024-01-07T01:42:08;4.23;;;2.73;;
5040;SDS011;2539;52.568;13.364;2024-01-07T01:44:34;5.00;;;3.70;;
5040;SDS011;2539;52.568;13.364;2024-01-07T01:47:01;5.87;;;3.47;;
5040;SDS011;2539;52.568;13.364;2024-01-07T01:49:27;4.77;;;3.53;;
5040;SDS011;2539;52.568;13.364;2024-01-07T01:51:54;3.37;;;2.63;;
5040;SDS011;2539;52.568;13.364;2024-01-07T01:54:20;3.60;;;3.00;;
5040;SDS011;2539;52.568;13.364;2024-01-07T01:56:48;4.37;;;3.17;;
5040;SDS011;2539;52.568;13.364;2024-01-07T01:59:14;3.83;;;3.50;;
5040;SDS011;2539;52.568;13.364;2024-01-07T02:01:41;4.30;;;3.40;;
5040;SDS011;2539;52.568;13.364;2024-01-07T02:04:08;4.20;;;3.77;;
5040;SDS011;2539;52.568;13.364;2024-01-07T02:06:35;6.40;;;3.50;;
5040;SDS011;2539;52.568;13.364;2024-01-07T02:09:02;4.47;;;3.30;;
5040;SDS011;2539;52.568;13.364;2024-01-07T02:11:28;3.43;;;3.07;;
5040;SDS011;2539;52.568;13.364;2024-01-07T02:13:54;4.00;;;3.53;;
5040;SDS011;2539;52.568;13.364;2024-01-07T02:16:21;5.23;;;3.37;;
5040;SDS011;2539;52.568;13.364;2024-01-07T02:18:47;4.93;;;3.40;;
5040;SDS011;2539;52.568;13.364;2024-01-07T02:21:13;5.57;;;3.93;;
5040;SDS011;2539;52.568;13.364;2024-01-07T02:23:40;3.60;;;3.03;;
5040;SDS011;2539;52.568;13.364;2024-01-07T02:26:07;3.47;;;2.90;;
5040;SDS011;2539;52.568;13.364;2024-01-07T02:28:33;4.90;;;3.40;;
5040;SDS011;2539;52.568;13.364;2024-01-07T02:31:00;3.40;;;2.83;;
5040;SDS011;2539;52.568;13.364;2024-01-07T02:33:26;8.53;;;3.10;;
5040;SDS011;2539;52.568;13.364;2024-01-07T02:35:53;4.30;;;3.63;;
5040;SDS011;2539;52.568;13.364;2024-01-07T02:38:19;5.17;;;3.20;;
5040;SDS011;2539;52.568;13.364;2024-01-07T02:40:46;3.27;;;2.97;;
5040;SDS011;2539;52.568;13.364;2024-01-07T02:43:12;5.40;;;3.40;;
5040;SDS011;2539;52.568;13.364;2024-01-07T02:45:38;2.90;;;2.43;;
5040;SDS011;2539;52.568;13.364;2024-01-07T02:48:05;4.20;;;3.20;;
5040;SDS011;2539;52.568;13.364;2024-01-07T02:50:31;3.67;;;3.27;;
5040;SDS011;2539;52.568;13.364;2024-01-07T02:52:58;4.57;;;3.23;;
5040;SDS011;2539;52.568;13.364;2024-01-07T02:55:24;5.37;;;3.53;;
5040;SDS011;2539;52.568;13.364;2024-01-07T02:57:50;3.47;;;3.03;;
5040;SDS011;2539;52.568;13.364;2024-01-07T03:00:17;3.73;;;3.20;;
5040;SDS011;2539;52.568;13.364;2024-01-07T03:02:43;4.93;;;3.27;;
5040;SDS011;2539;52.568;13.364;2024-01-07T03:05:09;3.80;;;2.77;;
5040;SDS011;2539;52.568;13.364;2024-01-07T03:07:37;3.13;;;2.50;;
5040;SDS011;2539;52.568;13.364;2024-01-07T03:10:05;3.67;;;2.83;;
5040;SDS011;2539;52.568;13.364;2024-01-07T03:12:32;5.60;;;3.40;;
5040;SDS011;2539;52.568;13.364;2024-01-07T03:14:58;5.00;;;3.30;;
5040;SDS011;2539;52.568;13.364;2024-01-07T03:17:24;3.97;;;3.30;;
5040;SDS011;2539;52.568;13.364;2024-01-07T03:19:50;4.33;;;3.20;;
5040;SDS011;2539;52.568;13.364;2024-01-07T03:22:17;3.13;;;2.83;;
5040;SDS011;2539;52.568;13.364;2024-01-07T03:24:43;3.03;;;2.40;;
5040;SDS011;2539;52.568;13.364;2024-01-07T03:27:09;4.13;;;3.33;;
5040;SDS011;2539;52.568;13.364;2024-01-07T03:29:35;3.50;;;2.80;;
5040;SDS011;2539;52.568;13.364;2024-01-07T03:32:02;3.13;;;2.83;;
5040;SDS011;2539;52.568;13.364;2024-01-07T03:34:28;2.63;;;2.37;;
5040;SDS011;2539;52.568;13.364;2024-01-07T03:36:54;3.10;;;2.80;;
5040;SDS011;2539;52.568;13.364;2024-01-07T03:39:20;3.53;;;2.97;;
5040;SDS011;2539;52.568;13.364;2024-01-07T03:41:47;3.43;;;2.40;;
5040;SDS011;2539;52.568;13.364;2024-01-07T03:44:13;5.23;;;2.90;;
5040;SDS011;2539;52.568;13.364;2024-01-07T03:46:40;6.00;;;3.17;;
5040;SDS011;2539;52.568;13.364;2024-01-07T03:49:06;2.70;;;2.33;;
5040;SDS011;2539;52.568;13.364;2024-01-07T03:51:32;7.73;;;3.80;;
5040;SDS011;2539;52.568;13.364;2024-01-07T03:53:58;4.20;;;3.00;;
5040;SDS011;2539;52.568;13.364;2024-01-07T03:56:25;3.47;;;3.13;;
5040;SDS011;2539;52.568;13.364;2024-01-07T03:58:51;7.10;;;5.40;;
5040;SDS011;2539;52.568;13.364;2024-01-07T04:01:17;3.27;;;2.83;;
5040;SDS011;2539;52.568;13.364;2024-01-07T04:03:43;2.60;;;2.30;;
5040;SDS011;2539;52.568;13.364;2024-01-07T04:06:10;3.07;;;2.77;;
5040;SDS011;2539;52.568;13.364;2024-01-07T04:08:36;3.80;;;3.50;;
5040;SDS011;2539;52.568;13.364;2024-01-07T04:11:02;3.00;;;2.70;;
5040;SDS011;2539;52.568;13.364;2024-01-07T04:13:29;3.27;;;2.97;;
5040;SDS011;2539;52.568;13.364;2024-01-07T04:15:55;2.50;;;2.30;;
5040;SDS011;2539;52.568;13.364;2024-01-07T04:18:21;3.73;;;2.87;;
5040;SDS011;2539;52.568;13.364;2024-01-07T04:20:47;4.43;;;3.20;;
5040;SDS011;2539;52.568;13.364;2024-01-07T04:23:14;6.10;;;3.27;;
5040;SDS011;2539;52.568;13.364;2024-01-07T04:25:40;3.40;;;2.83;;
5040;SDS011;2539;52.568;13.364;2024-01-07T04:28:08;3.27;;;2.97;;
5040;SDS011;2539;52.568;13.364;2024-01-07T04:30:35;2.90;;;2.60;;
5040;SDS011;2539;52.568;13.364;2024-01-07T04:33:01;3.10;;;2.20;;
5040;SDS011;2539;52.568;13.364;2024-01-07T04:35:28;4.67;;;2.97;;
5040;SDS011;2539;52.568;13.364;2024-01-07T04:37:54;3.30;;;2.80;;
5040;SDS011;2539;52.568;13.364;2024-01-07T04:40:20;2.70;;;2.50;;
5040;SDS011;2539;52.568;13.364;2024-01-07T04:42:46;3.00;;;2.47;;
5040;SDS011;2539;52.568;13.364;2024-01-07T04:45:12;3.70;;;2.93;;
5040;SDS011;2539;52.568;13.364;2024-01-07T04:47:39;4.40;;;2.63;;
5040;SDS011;2539;52.568;13.364;2024-01-07T04:50:05;3.57;;;2.60;;
5040;SDS011;2539;52.568;13.364;2024-01-07T04:52:32;3.80;;;2.83;;
5040;SDS011;2539;52.568;13.364;2024-01-07T04:54:58;2.90;;;2.33;;
5040;SDS011;2539;52.568;13.364;2024-01-07T04:57:24;3.50;;;2.87;;
5040;SDS011;2539;52.568;13.364;2024-01-07T04:59:51;7.53;;;3.00;;
5040;SDS011;2539;52.568;13.364;2024-01-07T05:02:18;3.23;;;2.93;;
5040;SDS011;2539;52.568;13.364;2024-01-07T05:04:44;3.80;;;2.77;;
5040;SDS011;2539;52.568;13.364;2024-01-07T05:07:10;4.13;;;3.17;;
5040;SDS011;2539;52.568;13.364;2024-01-07T05:09:37;3.23;;;2.77;;
5040;SDS011;2539;52.568;13.364;2024-01-07T05:12:03;2.93;;;2.63;;
5040;SDS011;2539;52.568;13.364;2024-01-07T05:14:29;4.50;;;2.93;;
5040;SDS011;2539;52.568;13.364;2024-01-07T05:16:55;3.70;;;2.80;;
5040;SDS011;2539;52.568;13.364;2024-01-07T05:19:22;4.13;;;3.07;;
5040;SDS011;2539;52.568;13.364;2024-01-07T05:21:48;3.77;;;2.50;;
5040;SDS011;2539;52.568;13.364;2024-01-07T05:24:15;4.13;;;3.10;;
5040;SDS011;2539;52.568;13.364;2024-01-07T05:26:42;5.13;;;3.50;;
5040;SDS011;2539;52.568;13.364;2024-01-07T05:29:10;3.97;;;3.20;;
5040;SDS011;2539;52.568;13.364;2024-01-07T05:31:38;5.00;;;3.10;;
5040;SDS011;2539;52.568;13.364;2024-01-07T05:34:07;5.00;;;2.90;;
5040;SDS011;2539;52.568;13.364;2024-01-07T05:36:33;4.33;;;3.50;;
5040;SDS011;2539;52.568;13.364;2024-01-07T05:39:00;4.80;;;3.63;;
5040;SDS011;2539;52.568;13.364;2024-01-07T05:41:26;4.80;;;3.20;;
5040;SDS011;2539;52.568;13.364;2024-01-07T05:43:52;5.00;;;3.53;;
5040;SDS011;2539;52.568;13.364;2024-01-07T05:46:19;5.00;;;3.80;;
5040;SDS011;2539;52.568;13.364;2024-01-07T05:48:46;4.87;;;3.40;;
5040;SDS011;2539;52.568;13.364;2024-01-07T05:51:14;4.53;;;3.57;;
5040;SDS011;2539;52.568;13.364;2024-01-07T05:53:41;4.07;;;3.17;;
5040;SDS011;2539;52.568;13.364;2024-01-07T05:56:08;4.50;;;3.23;;
5040;SDS011;2539;52.568;13.364;2024-01-07T05:58:35;3.43;;;2.70;;
5040;SDS011;2539;52.568;13.364;2024-01-07T06:01:01;3.30;;;2.57;;
5040;SDS011;2539;52.568;13.364;2024-01-07T06:03:28;3.43;;;3.13;;
5040;SDS011;2539;52.568;13.364;2024-01-07T06:05:54;3.70;;;3.17;;
5040;SDS011;2539;52.568;13.364;2024-01-07T06:08:20;6.73;;;3.27;;
5040;SDS011;2539;52.568;13.364;2024-01-07T06:10:47;3.83;;;3.53;;
5040;SDS011;2539;52.568;13.364;2024-01-07T06:13:13;5.63;;;3.73;;
5040;SDS011;2539;52.568;13.364;2024-01-07T06:15:39;5.57;;;4.00;;
5040;SDS011;2539;52.568;13.364;2024-01-07T06:18:05;4.37;;;3.80;;
5040;SDS011;2539;52.568;13.364;2024-01-07T06:20:32;4.30;;;3.87;;
5040;SDS011;2539;52.568;13.364;2024-01-07T06:22:58;4.03;;;3.63;;
5040;SDS011;2539;52.568;13.364;2024-01-07T06:25:24;4.20;;;3.47;;
5040;SDS011;2539;52.568;13.364;2024-01-07T06:27:52;5.50;;;3.63;;
5040;SDS011;2539;52.568;13.364;2024-01-07T06:30:18;3.90;;;3.50;;
5040;SDS011;2539;52.568;13.364;2024-01-07T06:32:45;7.93;;;3.73;;
5040;SDS011;2539;52.568;13.364;2024-01-07T06:35:11;4.17;;;3.00;;
5040;SDS011;2539;52.568;13.364;2024-01-07T06:37:37;3.57;;;3.07;;
5040;SDS011;2539;52.568;13.364;2024-01-07T06:40:04;5.60;;;3.60;;
5040;SDS011;2539;52.568;13.364;2024-01-07T06:42:30;7.23;;;4.07;;
5040;SDS011;2539;52.568;13.364;2024-01-07T06:44:56;4.33;;;3.87;;
5040;SDS011;2539;52.568;13.364;2024-01-07T06:47:23;4.63;;;3.80;;
5040;SDS011;2539;52.568;13.364;2024-01-07T06:49:49;4.63;;;3.80;;
5040;SDS011;2539;52.568;13.364;2024-01-07T06:52:15;4.10;;;3.47;;
5040;SDS011;2539;52.568;13.364;2024-01-07T06:54:42;4.90;;;3.70;;
5040;SDS011;2539;52.568;13.364;2024-01-07T06:57:08;4.50;;;3.07;;
5040;SDS011;2539;52.568;13.364;2024-01-07T06:59:34;4.10;;;3.33;;
5040;SDS011;2539;52.568;13.364;2024-01-07T07:02:01;6.97;;;3.50;;
5040;SDS011;2539;52.568;13.364;2024-01-07T07:04:27;5.03;;;4.00;;
5040;SDS011;2539;52.568;13.364;2024-01-07T07:06:53;4.90;;;4.17;;
5040;SDS011;2539;52.568;13.364;2024-01-07T07:09:20;5.90;;;4.10;;
5040;SDS011;2539;52.568;13.364;2024-01-07T07:11:46;4.40;;;3.17;;
5040;SDS011;2539;52.568;13.364;2024-01-07T07:14:12;5.63;;;4.53;;
5040;SDS011;2539;52.568;13.364;2024-01-07T07:16:38;4.80;;;3.50;;
5040;SDS011;2539;52.568;13.364;2024-01-07T07:19:05;9.70;;;3.77;;
5040;SDS011;2539;52.568;13.364;2024-01-07T07:21:31;4.63;;;3.93;;
5040;SDS011;2539;52.568;13.364;2024-01-07T07:23:57;4.53;;;3.70;;
5040;SDS011;2539;52.568;13.364;2024-01-07T07:26:24;4.40;;;3.23;;
5040;SDS011;2539;52.568;13.364;2024-01-07T07:28:50;4.00;;;3.60;;
5040;SDS011;2539;52.568;13.364;2024-01-07T07:31:16;5.10;;;3.87;;
5040;SDS011;2539;52.568;13.364;2024-01-07T07:33:42;4.93;;;4.10;;
5040;SDS011;2539;52.568;13.364;2024-01-07T07:36:09;4.50;;;3.70;;
5040;SDS011;2539;52.568;13.364;2024-01-07T07:38:35;6.00;;;4.60;;
5040;SDS011;2539;52.568;13.364;2024-01-07T07:41:01;3.93;;;3.50;;
5040;SDS011;2539;52.568;13.364;2024-01-07T07:43:27;6.20;;;4.23;;
5040;SDS011;2539;52.568;13.364;2024-01-07T07:45:55;4.17;;;3.50;;
5040;SDS011;2539;52.568;13.364;2024-01-07T07:48:21;3.90;;;3.27;;
5040;SDS011;2539;52.568;13.364;2024-01-07T07:50:48;3.30;;;2.90;;
5040;SDS011;2539;52.568;13.364;2024-01-07T07:53:15;4.20;;;3.30;;
5040;SDS011;2539;52.568;13.364;2024-01-07T07:55:41;3.47;;;2.83;;
5040;SDS011;2539;52.568;13.364;2024-01-07T07:58:07;4.60;;;3.27;;
5040;SDS011;2539;52.568;13.364;2024-01-07T08:00:34;4.30;;;3.10;;
5040;SDS011;2539;52.568;13.364;2024-01-07T08:03:00;4.80;;;4.10;;
5040;SDS011;2539;52.568;13.364;2024-01-07T08:05:26;3.80;;;3.40;;
5040;SDS011;2539;52.568;13.364;2024-01-07T08:07:52;4.03;;;3.63;;
5040;SDS011;2539;52.568;13.364;2024-01-07T08:10:19;6.33;;;4.10;;
5040;SDS011;2539;52.568;13.364;2024-01-07T08:12:47;3.60;;;3.10;;
5040;SDS011;2539;52.568;13.364;2024-01-07T08:15:13;5.50;;;3.43;;
5040;SDS011;2539;52.568;13.364;2024-01-07T08:17:40;4.13;;;3.50;;
5040;SDS011;2539;52.568;13.364;2024-01-07T08:20:07;4.77;;;3.87;;
5040;SDS011;2539;52.568;13.364;2024-01-07T08:22:34;5.83;;;3.60;;
5040;SDS011;2539;52.568;13.364;2024-01-07T08:25:00;4.13;;;3.77;;
5040;SDS011;2539;52.568;13.364;2024-01-07T08:27:27;4.63;;;4.07;;
5040;SDS011;2539;52.568;13.364;2024-01-07T08:29:54;4.73;;;4.23;;
5040;SDS011;2539;52.568;13.364;2024-01-07T08:32:21;4.10;;;3.63;;
5040;SDS011;2539;52.568;13.364;2024-01-07T08:34:48;6.03;;;3.63;;
5040;SDS011;2539;52.568;13.364;2024-01-07T08:37:14;5.17;;;3.83;;
5040;SDS011;2539;52.568;13.364;2024-01-07T08:39:40;5.77;;;4.80;;
5040;SDS011;2539;52.568;13.364;2024-01-07T08:42:07;5.37;;;4.30;;
5040;SDS011;2539;52.568;13.364;2024-01-07T08:44:32;5.70;;;4.40;;
5040;SDS011;2539;52.568;13.364;2024-01-07T08:46:59;4.63;;;4.13;;
5040;SDS011;2539;52.568;13.364;2024-01-07T08:49:27;6.53;;;4.83;;
5040;SDS011;2539;52.568;13.364;2024-01-07T08:51:53;5.70;;;4.47;;
5040;SDS011;2539;52.568;13.364;2024-01-07T08:54:21;5.53;;;4.53;;
5040;SDS011;2539;52.568;13.364;2024-01-07T08:56:48;5.60;;;4.60;;
5040;SDS011;2539;52.568;13.364;2024-01-07T08:59:15;5.30;;;4.43;;
5040;SDS011;2539;52.568;13.364;2024-01-07T09:01:41;7.13;;;4.90;;
5040;SDS011;2539;52.568;13.364;2024-01-07T09:04:07;5.50;;;4.97;;
5040;SDS011;2539;52.568;13.364;2024-01-07T09:06:34;4.93;;;4.53;;
5040;SDS011;2539;52.568;13.364;2024-01-07T09:09:00;4.37;;;3.97;;
5040;SDS011;2539;52.568;13.364;2024-01-07T09:11:26;5.17;;;4.20;;
5040;SDS011;2539;52.568;13.364;2024-01-07T09:13:52;5.63;;;4.57;;
5040;SDS011;2539;52.568;13.364;2024-01-07T09:16:18;5.17;;;4.23;;
5040;SDS011;2539;52.568;13.364;2024-01-07T09:18:45;5.90;;;4.53;;
5040;SDS011;2539;52.568;13.364;2024-01-07T09:21:11;4.83;;;4.33;;
5040;SDS011;2539;52.568;13.364;2024-01-07T09:23:38;6.40;;;5.80;;
5040;SDS011;2539;52.568;13.364;2024-01-07T09:26:05;5.23;;;4.40;;
5040;SDS011;2539;52.568;13.364;2024-01-07T09:28:31;5.40;;;4.87;;
5040;SDS011;2539;52.568;13.364;2024-01-07T09:30:57;5.73;;;4.63;;
5040;SDS011;2539;52.568;13.364;2024-01-07T09:33:23;8.10;;;4.97;;
5040;SDS011;2539;52.568;13.364;2024-01-07T09:35:50;6.10;;;5.10;;
5040;SDS011;2539;52.568;13.364;2024-01-07T09:38:16;7.40;;;5.77;;
5040;SDS011;2539;52.568;13.364;2024-01-07T09:40:43;6.87;;;4.83;;
5040;SDS011;2539;52.568;13.364;2024-01-07T09:43:09;8.47;;;4.53;;
5040;SDS011;2539;52.568;13.364;2024-01-07T09:45:36;6.07;;;4.73;;
5040;SDS011;2539;52.568;13.364;2024-01-07T09:48:05;6.00;;;5.40;;
5040;SDS011;2539;52.568;13.364;2024-01-07T09:50:31;5.83;;;5.23;;
5040;SDS011;2539;52.568;13.364;2024-01-07T09:52:58;5.57;;;4.63;;
5040;SDS011;2539;52.568;13.364;2024-01-07T09:55:31;8.00;;;5.67;;
5040;SDS011;2539;52.568;13.364;2024-01-07T09:58:00;9.30;;;4.80;;
5040;SDS011;2539;52.568;13.364;2024-01-07T10:00:26;5.27;;;4.77;;
5040;SDS011;2539;52.568;13.364;2024-01-07T10:02:53;8.43;;;5.43;;
5040;SDS011;2539;52.568;13.364;2024-01-07T10:05:19;5.60;;;4.70;;
5040;SDS011;2539;52.568;13.364;2024-01-07T10:07:46;7.60;;;5.57;;
5040;SDS011;2539;52.568;13.364;2024-01-07T10:12:45;7.20;;;5.77;;
5040;SDS011;2539;52.568;13.364;2024-01-07T10:15:12;6.70;;;5.00;;
5040;SDS011;2539;52.568;13.364;2024-01-07T10:17:42;7.40;;;5.60;;
5040;SDS011;2539;52.568;13.364;2024-01-07T10:20:08;8.83;;;5.83;;
5040;SDS011;2539;52.568;13.364;2024-01-07T10:22:38;9.37;;;5.73;;
5040;SDS011;2539;52.568;13.364;2024-01-07T10:25:05;10.07;;;5.40;;
5040;SDS011;2539;52.568;13.364;2024-01-07T10:27:35;6.17;;;5.07;;
5040;SDS011;2539;52.568;13.364;2024-01-07T10:30:03;8.73;;;5.90;;
5040;SDS011;2539;52.568;13.364;2024-01-07T10:32:30;6.90;;;5.43;;
5040;SDS011;2539;52.568;13.364;2024-01-07T10:34:57;6.97;;;6.07;;
5040;SDS011;2539;52.568;13.364;2024-01-07T10:37:28;5.37;;;4.87;;
5040;SDS011;2539;52.568;13.364;2024-01-07T10:39:54;8.60;;;5.23;;
5040;SDS011;2539;52.568;13.364;2024-01-07T10:42:31;6.47;;;5.40;;
5040;SDS011;2539;52.568;13.364;2024-01-07T10:45:01;6.90;;;5.63;;
5040;SDS011;2539;52.568;13.364;2024-01-07T10:47:29;12.00;;;6.10;;
5040;SDS011;2539;52.568;13.364;2024-01-07T10:50:00;6.47;;;5.53;;
5040;SDS011;2539;52.568;13.364;2024-01-07T10:52:28;6.63;;;5.10;;
5040;SDS011;2539;52.568;13.364;2024-01-07T10:54:56;6.13;;;5.13;;
5040;SDS011;2539;52.568;13.364;2024-01-07T10:57:35;7.70;;;5.77;;
5040;SDS011;2539;52.568;13.364;2024-01-07T11:00:13;8.40;;;5.80;;
5040;SDS011;2539;52.568;13.364;2024-01-07T11:08:25;5.60;;;4.53;;
5040;SDS011;2539;52.568;13.364;2024-01-07T11:11:03;6.80;;;6.00;;
5040;SDS011;2539;52.568;13.364;2024-01-07T11:13:33;7.30;;;4.73;;
5040;SDS011;2539;52.568;13.364;2024-01-07T11:16:01;5.77;;;5.00;;
5040;SDS011;2539;52.568;13.364;2024-01-07T11:18:28;7.43;;;4.80;;
5040;SDS011;2539;52.568;13.364;2024-01-07T11:21:00;4.97;;;4.40;;
5040;SDS011;2539;52.568;13.364;2024-01-07T11:23:36;8.10;;;5.00;;
5040;SDS011;2539;52.568;13.364;2024-01-07T11:26:08;9.20;;;6.20;;
5040;SDS011;2539;52.568;13.364;2024-01-07T11:31:09;7.33;;;5.33;;
5040;SDS011;2539;52.568;13.364;2024-01-07T11:33:39;7.53;;;5.37;;
5040;SDS011;2539;52.568;13.364;2024-01-07T11:36:07;7.20;;;4.80;;
5040;SDS011;2539;52.568;13.364;2024-01-07T11:38:34;6.03;;;5.43;;
5040;SDS011;2539;52.568;13.364;2024-01-07T11:41:01;7.67;;;5.27;;
5040;SDS011;2539;52.568;13.364;2024-01-07T11:43:31;8.23;;;4.77;;
5040;SDS011;2539;52.568;13.364;2024-01-07T11:46:00;6.37;;;5.27;;
5040;SDS011;2539;52.568;13.364;2024-01-07T11:48:26;7.07;;;5.77;;
5040;SDS011;2539;52.568;13.364;2024-01-07T11:50:53;5.43;;;4.93;;
5040;SDS011;2539;52.568;13.364;2024-01-07T11:53:20;5.63;;;4.83;;
5040;SDS011;2539;52.568;13.364;2024-01-07T11:55:46;6.00;;;4.97;;
5040;SDS011;2539;52.568;13.364;2024-01-07T11:58:12;5.60;;;4.90;;
5040;SDS011;2539;52.568;13.364;2024-01-07T12:00:39;5.50;;;4.83;;
5040;SDS011;2539;52.568;13.364;2024-01-07T12:03:05;6.03;;;5.10;;
5040;SDS011;2539;52.568;13.364;2024-01-07T12:05:32;7.30;;;4.80;;
5040;SDS011;2539;52.568;13.364;2024-01-07T12:07:59;8.07;;;5.67;;
5040;SDS011;2539;52.568;13.364;2024-01-07T12:10:26;5.47;;;4.87;;
5040;SDS011;2539;52.568;13.364;2024-01-07T12:12:54;6.40;;;5.60;;
5040;SDS011;2539;52.568;13.364;2024-01-07T12:15:21;6.23;;;5.17;;
5040;SDS011;2539;52.568;13.364;2024-01-07T12:17:55;5.83;;;5.10;;
5040;SDS011;2539;52.568;13.364;2024-01-07T12:20:23;5.80;;;4.83;;
5040;SDS011;2539;52.568;13.364;2024-01-07T12:22:49;5.90;;;4.93;;
5040;SDS011;2539;52.568;13.364;2024-01-07T12:25:20;5.33;;;4.33;;
5040;SDS011;2539;52.568;13.364;2024-01-07T12:27:50;6.17;;;4.93;;
5040;SDS011;2539;52.568;13.364;2024-01-07T12:30:19;5.90;;;4.70;;
5040;SDS011;2539;52.568;13.364;2024-01-07T12:32:46;6.70;;;5.70;;
5040;SDS011;2539;52.568;13.364;2024-01-07T12:35:12;10.77;;;8.07;;
5040;SDS011;2539;52.568;13.364;2024-01-07T12:37:39;9.33;;;7.63;;
5040;SDS011;2539;52.568;13.364;2024-01-07T12:40:05;7.07;;;5.40;;
5040;SDS011;2539;52.568;13.364;2024-01-07T12:42:34;7.33;;;4.30;;
5040;SDS011;2539;52.568;13.364;2024-01-07T12:45:01;11.30;;;4.37;;
5040;SDS011;2539;52.568;13.364;2024-01-07T12:47:27;6.43;;;4.80;;
5040;SDS011;2539;52.568;13.364;2024-01-07T12:49:53;5.03;;;4.53;;
5040;SDS011;2539;52.568;13.364;2024-01-07T12:52:19;5.10;;;4.60;;
5040;SDS011;2539;52.568;13.364;2024-01-07T12:54:46;7.20;;;4.10;;
5040;SDS011;2539;52.568;13.364;2024-01-07T12:57:13;5.80;;;4.17;;
5040;SDS011;2539;52.568;13.364;2024-01-07T12:59:39;5.23;;;4.60;;
5040;SDS011;2539;52.568;13.364;2024-01-07T13:02:05;4.27;;;3.73;;
5040;SDS011;2539;52.568;13.364;2024-01-07T13:04:31;4.60;;;4.20;;
5040;SDS011;2539;52.568;13.364;2024-01-07T13:06:58;4.80;;;4.10;;
5040;SDS011;2539;52.568;13.364;2024-01-07T13:09:24;5.20;;;4.60;;
5040;SDS011;2539;52.568;13.364;2024-01-07T13:11:50;6.73;;;4.20;;
5040;SDS011;2539;52.568;13.364;2024-01-07T13:14:17;7.70;;;4.20;;
5040;SDS011;2539;52.568;13.364;2024-01-07T13:16:43;5.30;;;4.33;;
5040;SDS011;2539;52.568;13.364;2024-01-07T13:19:09;4.60;;;4.13;;
5040;SDS011;2539;52.568;13.364;2024-01-07T13:21:37;5.60;;;4.37;;
5040;SDS011;2539;52.568;13.364;2024-01-07T13:24:04;4.40;;;4.00;;
5040;SDS011;2539;52.568;13.364;2024-01-07T13:26:30;5.43;;;4.00;;
5040;SDS011;2539;52.568;13.364;2024-01-07T13:28:59;6.50;;;4.00;;
5040;SDS011;2539;52.568;13.364;2024-01-07T13:31:24;6.37;;;3.93;;
5040;SDS011;2539;52.568;13.364;2024-01-07T13:33:50;4.97;;;4.47;;
5040;SDS011;2539;52.568;13.364;2024-01-07T13:36:17;4.70;;;3.60;;
5040;SDS011;2539;52.568;13.364;2024-01-07T13:38:43;4.20;;;3.80;;
5040;SDS011;2539;52.568;13.364;2024-01-07T13:41:09;3.90;;;3.50;;
5040;SDS011;2539;52.568;13.364;2024-01-07T13:43:36;4.23;;;3.50;;
5040;SDS011;2539;52.568;13.364;2024-01-07T13:46:06;3.90;;;3.13;;
5040;SDS011;2539;52.568;13.364;2024-01-07T13:48:32;4.30;;;3.90;;
5040;SDS011;2539;52.568;13.364;2024-01-07T13:51:00;4.17;;;3.60;;
5040;SDS011;2539;52.568;13.364;2024-01-07T13:53:26;4.10;;;3.70;;
5040;SDS011;2539;52.568;13.364;2024-01-07T13:55:52;3.90;;;2.80;;
5040;SDS011;2539;52.568;13.364;2024-01-07T13:58:19;5.20;;;4.27;;
5040;SDS011;2539;52.568;13.364;2024-01-07T14:00:45;4.10;;;3.70;;
5040;SDS011;2539;52.568;13.364;2024-01-07T14:03:12;4.33;;;3.10;;
5040;SDS011;2539;52.568;13.364;2024-01-07T14:05:38;5.50;;;3.50;;
5040;SDS011;2539;52.568;13.364;2024-01-07T14:08:05;4.03;;;3.30;;
5040;SDS011;2539;52.568;13.364;2024-01-07T14:10:31;10.00;;;3.70;;
5040;SDS011;2539;52.568;13.364;2024-01-07T14:12:58;3.60;;;2.90;;
5040;SDS011;2539;52.568;13.364;2024-01-07T14:15:24;4.40;;;2.90;;
5040;SDS011;2539;52.568;13.364;2024-01-07T14:17:50;4.33;;;3.93;;
5040;SDS011;2539;52.568;13.364;2024-01-07T14:20:17;4.00;;;3.60;;
5040;SDS011;2539;52.568;13.364;2024-01-07T14:22:43;4.20;;;3.20;;
5040;SDS011;2539;52.568;13.364;2024-01-07T14:25:09;4.10;;;3.70;;
5040;SDS011;2539;52.568;13.364;2024-01-07T14:27:35;4.50;;;4.10;;
5040;SDS011;2539;52.568;13.364;2024-01-07T14:30:00;4.73;;;3.67;;
5040;SDS011;2539;52.568;13.364;2024-01-07T14:32:28;6.93;;;3.63;;
5040;SDS011;2539;52.568;13.364;2024-01-07T14:34:54;4.97;;;3.87;;
5040;SDS011;2539;52.568;13.364;2024-01-07T14:37:20;4.30;;;3.90;;
5040;SDS011;2539;52.568;13.364;2024-01-07T14:39:46;8.07;;;4.50;;
5040;SDS011;2539;52.568;13.364;2024-01-07T14:42:11;4.10;;;3.47;;
5040;SDS011;2539;52.568;13.364;2024-01-07T14:44:37;4.37;;;3.30;;
5040;SDS011;2539;52.568;13.364;2024-01-07T14:47:03;5.37;;;3.00;;
5040;SDS011;2539;52.568;13.364;2024-01-07T14:49:29;4.37;;;3.97;;
5040;SDS011;2539;52.568;13.364;2024-01-07T14:51:55;3.77;;;3.27;;
5040;SDS011;2539;52.568;13.364;2024-01-07T14:54:21;6.63;;;3.47;;
5040;SDS011;2539;52.568;13.364;2024-01-07T14:56:48;3.80;;;2.90;;
5040;SDS011;2539;52.568;13.364;2024-01-07T14:59:14;4.43;;;3.33;;
5040;SDS011;2539;52.568;13.364;2024-01-07T15:01:41;5.30;;;3.33;;
5040;SDS011;2539;52.568;13.364;2024-01-07T15:04:10;6.07;;;4.30;;
5040;SDS011;2539;52.568;13.364;2024-01-07T15:06:41;4.17;;;3.50;;
5040;SDS011;2539;52.568;13.364;2024-01-07T15:09:08;5.20;;;4.13;;